sensor_id;sensor_type;location;lat;lon;timestamp;P1;durP1;ratioP1;P2;durP2;ratioP2
73670;SDS011;61968;48.178;11.566;2023-09-30T00:01:40;19.60;;;7.18;;
73670;SDS011;61968;48.178;11.566;2023-09-30T00:04:06;17.67;;;7.60;;
73670;SDS011;61968;48.178;11.566;2023-09-30T00:06:35;23.27;;;7.57;;
73670;SDS011;61968;48.178;11.566;2023-09-30T00:09:02;18.52;;;7.03;;
73670;SDS011;61968;48.178;11.566;2023-09-30T00:11:30;23.27;;;7.95;;
73670;SDS011;61968;48.178;11.566;2023-09-30T00:13:56;20.00;;;7.40;;
73670;SDS011;61968;48.178;11.566;2023-09-30T00:16:23;22.02;;;7.70;;
73670;SDS011;61968;48.178;11.566;2023-09-30T00:18:49;26.08;;;9.48;;
73670;SDS011;61968;48.178;11.566;2023-09-30T00:21:18;21.48;;;7.15;;
73670;SDS011;61968;48.178;11.566;2023-09-30T00:23:46;21.55;;;7.28;;
73670;SDS011;61968;48.178;11.566;2023-09-30T00:26:12;25.10;;;8.13;;
73670;SDS011;61968;48.178;11.566;2023-09-30T00:28:39;20.17;;;7.78;;
73670;SDS011;61968;48.178;11.566;2023-09-30T00:31:06;18.98;;;7.82;;
73670;SDS011;61968;48.178;11.566;2023-09-30T00:33:35;18.30;;;6.00;;
73670;SDS011;61968;48.178;11.566;2023-09-30T00:36:05;22.00;;;8.10;;
73670;SDS011;61968;48.178;11.566;2023-09-30T00:38:32;23.98;;;6.93;;
73670;SDS011;61968;48.178;11.566;2023-09-30T00:41:00;21.33;;;7.78;;
73670;SDS011;61968;48.178;11.566;2023-09-30T00:43:27;22.50;;;8.13;;
73670;SDS011;61968;48.178;11.566;2023-09-30T00:46:01;19.35;;;7.07;;
73670;SDS011;61968;48.178;11.566;2023-09-30T00:48:31;19.73;;;7.00;;
73670;SDS011;61968;48.178;11.566;2023-09-30T00:50:59;21.38;;;5.68;;
73670;SDS011;61968;48.178;11.566;2023-09-30T00:53:25;16.80;;;6.57;;
73670;SDS011;61968;48.178;11.566;2023-09-30T00:55:52;18.38;;;7.50;;
73670;SDS011;61968;48.178;11.566;2023-09-30T00:58:22;22.95;;;7.25;;
73670;SDS011;61968;48.178;11.566;2023-09-30T01:00:53;23.75;;;7.60;;
73670;SDS011;61968;48.178;11.566;2023-09-30T01:03:22;18.90;;;6.38;;
73670;SDS011;61968;48.178;11.566;2023-09-30T01:05:48;21.13;;;7.68;;
73670;SDS011;61968;48.178;11.566;2023-09-30T01:08:15;19.58;;;7.47;;
73670;SDS011;61968;48.178;11.566;2023-09-30T01:10:42;23.88;;;7.13;;
73670;SDS011;61968;48.178;11.566;2023-09-30T01:13:09;19.48;;;7.55;;
73670;SDS011;61968;48.178;11.566;2023-09-30T01:15:37;16.33;;;7.00;;
73670;SDS011;61968;48.178;11.566;2023-09-30T01:18:04;22.48;;;8.13;;
73670;SDS011;61968;48.178;11.566;2023-09-30T01:20:31;20.38;;;7.38;;
73670;SDS011;61968;48.178;11.566;2023-09-30T01:22:59;23.42;;;7.60;;
73670;SDS011;61968;48.178;11.566;2023-09-30T01:25:29;21.70;;;6.72;;
73670;SDS011;61968;48.178;11.566;2023-09-30T01:27:55;21.30;;;6.95;;
73670;SDS011;61968;48.178;11.566;2023-09-30T01:30:22;19.38;;;7.70;;
73670;SDS011;61968;48.178;11.566;2023-09-30T01:32:48;20.40;;;7.15;;
73670;SDS011;61968;48.178;11.566;2023-09-30T01:35:15;22.40;;;8.43;;
73670;SDS011;61968;48.178;11.566;2023-09-30T01:37:41;20.85;;;7.97;;
73670;SDS011;61968;48.178;11.566;2023-09-30T01:40:10;20.85;;;7.22;;
73670;SDS011;61968;48.178;11.566;2023-09-30T01:42:37;26.10;;;7.80;;
73670;SDS011;61968;48.178;11.566;2023-09-30T01:45:03;21.90;;;7.53;;
73670;SDS011;61968;48.178;11.566;2023-09-30T01:47:31;23.05;;;7.72;;
73670;SDS011;61968;48.178;11.566;2023-09-30T01:49:57;23.83;;;8.35;;
73670;SDS011;61968;48.178;11.566;2023-09-30T01:52:24;29.23;;;8.20;;
73670;SDS011;61968;48.178;11.566;2023-09-30T01:54:50;19.55;;;7.47;;
73670;SDS011;61968;48.178;11.566;2023-09-30T01:57:18;22.23;;;8.85;;
73670;SDS011;61968;48.178;11.566;2023-09-30T01:59:45;20.85;;;7.93;;
73670;SDS011;61968;48.178;11.566;2023-09-30T02:02:11;22.45;;;8.98;;
73670;SDS011;61968;48.178;11.566;2023-09-30T02:04:38;20.60;;;6.97;;
73670;SDS011;61968;48.178;11.566;2023-09-30T02:07:05;21.13;;;7.00;;
73670;SDS011;61968;48.178;11.566;2023-09-30T02:09:31;20.77;;;8.23;;
73670;SDS011;61968;48.178;11.566;2023-09-30T02:11:58;24.77;;;7.20;;
73670;SDS011;61968;48.178;11.566;2023-09-30T02:14:26;19.70;;;7.53;;
73670;SDS011;61968;48.178;11.566;2023-09-30T02:16:52;19.55;;;8.30;;
73670;SDS011;61968;48.178;11.566;2023-09-30T02:19:19;23.77;;;7.00;;
73670;SDS011;61968;48.178;11.566;2023-09-30T02:21:46;17.90;;;8.45;;
73670;SDS011;61968;48.178;11.566;2023-09-30T02:24:13;19.52;;;7.70;;
73670;SDS011;61968;48.178;11.566;2023-09-30T02:26:40;25.90;;;8.35;;
73670;SDS011;61968;48.178;11.566;2023-09-30T02:29:07;26.27;;;7.95;;
73670;SDS011;61968;48.178;11.566;2023-09-30T02:31:34;20.30;;;8.48;;
73670;SDS011;61968;48.178;11.566;2023-09-30T02:34:01;21.75;;;8.18;;
73670;SDS011;61968;48.178;11.566;2023-09-30T02:36:28;23.98;;;9.10;;
73670;SDS011;61968;48.178;11.566;2023-09-30T02:38:55;23.05;;;7.57;;
73670;SDS011;61968;48.178;11.566;2023-09-30T02:41:21;22.38;;;8.48;;
73670;SDS011;61968;48.178;11.566;2023-09-30T02:43:48;22.70;;;8.15;;
73670;SDS011;61968;48.178;11.566;2023-09-30T02:46:15;25.40;;;7.97;;
73670;SDS011;61968;48.178;11.566;2023-09-30T02:48:42;28.52;;;9.02;;
73670;SDS011;61968;48.178;11.566;2023-09-30T02:51:09;24.13;;;7.65;;
73670;SDS011;61968;48.178;11.566;2023-09-30T02:53:37;25.52;;;8.18;;
73670;SDS011;61968;48.178;11.566;2023-09-30T02:56:04;18.52;;;7.88;;
73670;SDS011;61968;48.178;11.566;2023-09-30T02:58:30;22.20;;;7.55;;
73670;SDS011;61968;48.178;11.566;2023-09-30T03:00:57;23.33;;;8.85;;
73670;SDS011;61968;48.178;11.566;2023-09-30T03:03:24;21.90;;;8.23;;
73670;SDS011;61968;48.178;11.566;2023-09-30T03:05:52;17.70;;;6.00;;
73670;SDS011;61968;48.178;11.566;2023-09-30T03:08:19;20.98;;;8.10;;
73670;SDS011;61968;48.178;11.566;2023-09-30T03:10:47;21.52;;;7.75;;
73670;SDS011;61968;48.178;11.566;2023-09-30T03:13:13;21.65;;;8.07;;
73670;SDS011;61968;48.178;11.566;2023-09-30T03:15:40;28.50;;;8.80;;
73670;SDS011;61968;48.178;11.566;2023-09-30T03:18:06;18.20;;;8.90;;
73670;SDS011;61968;48.178;11.566;2023-09-30T03:20:33;22.58;;;7.63;;
73670;SDS011;61968;48.178;11.566;2023-09-30T03:23:00;23.33;;;8.43;;
73670;SDS011;61968;48.178;11.566;2023-09-30T03:25:29;23.42;;;8.40;;
73670;SDS011;61968;48.178;11.566;2023-09-30T03:27:56;19.75;;;8.43;;
73670;SDS011;61968;48.178;11.566;2023-09-30T03:30:23;17.83;;;7.93;;
73670;SDS011;61968;48.178;11.566;2023-09-30T03:32:49;27.25;;;7.63;;
73670;SDS011;61968;48.178;11.566;2023-09-30T03:35:16;22.52;;;7.70;;
73670;SDS011;61968;48.178;11.566;2023-09-30T03:37:43;21.38;;;7.50;;
73670;SDS011;61968;48.178;11.566;2023-09-30T03:40:12;24.90;;;7.90;;
73670;SDS011;61968;48.178;11.566;2023-09-30T03:42:40;20.45;;;6.78;;
73670;SDS011;61968;48.178;11.566;2023-09-30T03:45:08;15.60;;;6.47;;
73670;SDS011;61968;48.178;11.566;2023-09-30T03:47:35;20.95;;;7.00;;
73670;SDS011;61968;48.178;11.566;2023-09-30T03:50:03;15.15;;;6.50;;
73670;SDS011;61968;48.178;11.566;2023-09-30T03:52:30;20.10;;;7.78;;
73670;SDS011;61968;48.178;11.566;2023-09-30T03:54:59;21.48;;;7.53;;
73670;SDS011;61968;48.178;11.566;2023-09-30T03:57:30;19.23;;;7.18;;
73670;SDS011;61968;48.178;11.566;2023-09-30T03:59:56;21.20;;;8.15;;
73670;SDS011;61968;48.178;11.566;2023-09-30T04:02:23;18.17;;;6.40;;
73670;SDS011;61968;48.178;11.566;2023-09-30T04:04:49;19.25;;;6.88;;
73670;SDS011;61968;48.178;11.566;2023-09-30T04:07:18;20.80;;;6.70;;
73670;SDS011;61968;48.178;11.566;2023-09-30T04:09:46;22.35;;;8.20;;
73670;SDS011;61968;48.178;11.566;2023-09-30T04:12:14;22.02;;;7.28;;
73670;SDS011;61968;48.178;11.566;2023-09-30T04:14:43;26.90;;;7.78;;
73670;SDS011;61968;48.178;11.566;2023-09-30T04:17:09;20.00;;;6.85;;
73670;SDS011;61968;48.178;11.566;2023-09-30T04:19:36;19.05;;;6.75;;
73670;SDS011;61968;48.178;11.566;2023-09-30T04:22:02;19.02;;;6.78;;
73670;SDS011;61968;48.178;11.566;2023-09-30T04:24:29;17.90;;;6.90;;
73670;SDS011;61968;48.178;11.566;2023-09-30T04:26:55;19.92;;;6.22;;
73670;SDS011;61968;48.178;11.566;2023-09-30T04:29:27;22.35;;;7.22;;
73670;SDS011;61968;48.178;11.566;2023-09-30T04:31:55;18.58;;;6.50;;
73670;SDS011;61968;48.178;11.566;2023-09-30T04:34:22;21.20;;;8.00;;
73670;SDS011;61968;48.178;11.566;2023-09-30T04:36:48;21.20;;;7.07;;
73670;SDS011;61968;48.178;11.566;2023-09-30T04:39:15;20.17;;;7.18;;
73670;SDS011;61968;48.178;11.566;2023-09-30T04:41:43;18.13;;;6.55;;
73670;SDS011;61968;48.178;11.566;2023-09-30T04:44:09;19.08;;;5.80;;
73670;SDS011;61968;48.178;11.566;2023-09-30T04:46:36;22.67;;;7.65;;
73670;SDS011;61968;48.178;11.566;2023-09-30T04:49:07;20.67;;;7.40;;
73670;SDS011;61968;48.178;11.566;2023-09-30T04:51:34;16.63;;;7.63;;
73670;SDS011;61968;48.178;11.566;2023-09-30T04:54:00;17.55;;;6.70;;
73670;SDS011;61968;48.178;11.566;2023-09-30T04:56:28;26.35;;;7.90;;
73670;SDS011;61968;48.178;11.566;2023-09-30T04:58:55;18.98;;;6.85;;
73670;SDS011;61968;48.178;11.566;2023-09-30T05:01:22;17.88;;;7.40;;
73670;SDS011;61968;48.178;11.566;2023-09-30T05:03:48;20.67;;;7.20;;
73670;SDS011;61968;48.178;11.566;2023-09-30T05:06:16;17.83;;;6.40;;
73670;SDS011;61968;48.178;11.566;2023-09-30T05:08:43;16.73;;;6.43;;
73670;SDS011;61968;48.178;11.566;2023-09-30T05:11:09;16.42;;;6.40;;
73670;SDS011;61968;48.178;11.566;2023-09-30T05:13:36;19.92;;;8.65;;
73670;SDS011;61968;48.178;11.566;2023-09-30T05:16:02;14.80;;;6.43;;
73670;SDS011;61968;48.178;11.566;2023-09-30T05:18:29;16.33;;;6.20;;
73670;SDS011;61968;48.178;11.566;2023-09-30T05:20:55;21.77;;;7.35;;
73670;SDS011;61968;48.178;11.566;2023-09-30T05:23:23;20.88;;;6.38;;
73670;SDS011;61968;48.178;11.566;2023-09-30T05:25:50;19.55;;;6.55;;
73670;SDS011;61968;48.178;11.566;2023-09-30T05:28:18;15.35;;;6.50;;
73670;SDS011;61968;48.178;11.566;2023-09-30T05:30:46;23.73;;;8.10;;
73670;SDS011;61968;48.178;11.566;2023-09-30T05:33:12;18.75;;;8.20;;
73670;SDS011;61968;48.178;11.566;2023-09-30T05:35:39;16.05;;;7.07;;
73670;SDS011;61968;48.178;11.566;2023-09-30T05:38:06;16.73;;;6.22;;
73670;SDS011;61968;48.178;11.566;2023-09-30T05:40:34;19.55;;;6.53;;
73670;SDS011;61968;48.178;11.566;2023-09-30T05:43:01;15.43;;;6.95;;
73670;SDS011;61968;48.178;11.566;2023-09-30T05:45:30;18.48;;;7.90;;
73670;SDS011;61968;48.178;11.566;2023-09-30T05:48:00;23.42;;;6.53;;
73670;SDS011;61968;48.178;11.566;2023-09-30T05:50:30;15.50;;;6.28;;
73670;SDS011;61968;48.178;11.566;2023-09-30T05:52:56;16.27;;;7.28;;
73670;SDS011;61968;48.178;11.566;2023-09-30T05:55:23;18.77;;;6.13;;
73670;SDS011;61968;48.178;11.566;2023-09-30T05:57:52;15.30;;;6.28;;
73670;SDS011;61968;48.178;11.566;2023-09-30T06:00:19;15.57;;;6.07;;
73670;SDS011;61968;48.178;11.566;2023-09-30T06:02:49;19.83;;;7.53;;
73670;SDS011;61968;48.178;11.566;2023-09-30T06:05:16;16.23;;;6.35;;
73670;SDS011;61968;48.178;11.566;2023-09-30T06:07:44;16.75;;;5.45;;
73670;SDS011;61968;48.178;11.566;2023-09-30T06:10:11;11.15;;;5.22;;
73670;SDS011;61968;48.178;11.566;2023-09-30T06:12:43;17.02;;;6.03;;
73670;SDS011;61968;48.178;11.566;2023-09-30T06:15:12;20.75;;;7.18;;
73670;SDS011;61968;48.178;11.566;2023-09-30T06:17:39;15.02;;;6.15;;
73670;SDS011;61968;48.178;11.566;2023-09-30T06:20:06;13.85;;;5.50;;
73670;SDS011;61968;48.178;11.566;2023-09-30T06:22:34;14.48;;;6.07;;
73670;SDS011;61968;48.178;11.566;2023-09-30T06:25:01;18.15;;;5.78;;
73670;SDS011;61968;48.178;11.566;2023-09-30T06:27:28;13.95;;;5.32;;
73670;SDS011;61968;48.178;11.566;2023-09-30T06:29:55;15.95;;;6.75;;
73670;SDS011;61968;48.178;11.566;2023-09-30T06:32:23;15.02;;;6.20;;
73670;SDS011;61968;48.178;11.566;2023-09-30T06:34:49;18.70;;;5.90;;
73670;SDS011;61968;48.178;11.566;2023-09-30T06:37:16;17.38;;;6.03;;
73670;SDS011;61968;48.178;11.566;2023-09-30T06:39:43;18.38;;;6.53;;
73670;SDS011;61968;48.178;11.566;2023-09-30T06:42:09;11.77;;;5.43;;
73670;SDS011;61968;48.178;11.566;2023-09-30T06:44:36;16.88;;;5.13;;
73670;SDS011;61968;48.178;11.566;2023-09-30T06:47:02;15.07;;;5.68;;
73670;SDS011;61968;48.178;11.566;2023-09-30T06:49:33;14.23;;;5.43;;
73670;SDS011;61968;48.178;11.566;2023-09-30T06:52:00;14.98;;;5.30;;
73670;SDS011;61968;48.178;11.566;2023-09-30T06:54:28;13.02;;;4.93;;
73670;SDS011;61968;48.178;11.566;2023-09-30T06:56:54;10.70;;;4.55;;
73670;SDS011;61968;48.178;11.566;2023-09-30T06:59:21;17.67;;;6.20;;
73670;SDS011;61968;48.178;11.566;2023-09-30T07:01:47;14.98;;;6.55;;
73670;SDS011;61968;48.178;11.566;2023-09-30T07:04:14;16.75;;;6.50;;
73670;SDS011;61968;48.178;11.566;2023-09-30T07:06:41;16.75;;;6.10;;
73670;SDS011;61968;48.178;11.566;2023-09-30T07:09:08;14.88;;;5.30;;
73670;SDS011;61968;48.178;11.566;2023-09-30T07:11:35;12.25;;;5.25;;
73670;SDS011;61968;48.178;11.566;2023-09-30T07:14:02;14.70;;;4.68;;
73670;SDS011;61968;48.178;11.566;2023-09-30T07:16:28;10.20;;;4.13;;
73670;SDS011;61968;48.178;11.566;2023-09-30T07:18:55;10.80;;;4.63;;
73670;SDS011;61968;48.178;11.566;2023-09-30T07:21:22;6.85;;;3.45;;
73670;SDS011;61968;48.178;11.566;2023-09-30T07:23:50;13.05;;;4.68;;
73670;SDS011;61968;48.178;11.566;2023-09-30T07:26:16;7.47;;;3.65;;
73670;SDS011;61968;48.178;11.566;2023-09-30T07:28:42;10.02;;;4.25;;
73670;SDS011;61968;48.178;11.566;2023-09-30T07:31:09;9.20;;;3.53;;
73670;SDS011;61968;48.178;11.566;2023-09-30T07:33:35;7.68;;;3.33;;
73670;SDS011;61968;48.178;11.566;2023-09-30T07:36:02;7.55;;;3.97;;
73670;SDS011;61968;48.178;11.566;2023-09-30T07:38:29;12.82;;;3.83;;
73670;SDS011;61968;48.178;11.566;2023-09-30T07:40:57;8.77;;;3.90;;
73670;SDS011;61968;48.178;11.566;2023-09-30T07:43:23;9.95;;;3.55;;
73670;SDS011;61968;48.178;11.566;2023-09-30T07:45:50;8.98;;;3.78;;
73670;SDS011;61968;48.178;11.566;2023-09-30T07:48:17;13.45;;;4.95;;
73670;SDS011;61968;48.178;11.566;2023-09-30T07:50:43;10.45;;;3.33;;
73670;SDS011;61968;48.178;11.566;2023-09-30T07:53:10;10.07;;;3.40;;
73670;SDS011;61968;48.178;11.566;2023-09-30T07:55:37;10.68;;;3.95;;
73670;SDS011;61968;48.178;11.566;2023-09-30T07:58:05;11.88;;;4.63;;
73670;SDS011;61968;48.178;11.566;2023-09-30T08:00:33;11.40;;;4.28;;
73670;SDS011;61968;48.178;11.566;2023-09-30T08:02:59;9.82;;;3.70;;
73670;SDS011;61968;48.178;11.566;2023-09-30T08:05:26;9.50;;;4.45;;
73670;SDS011;61968;48.178;11.566;2023-09-30T08:07:52;13.40;;;4.60;;
73670;SDS011;61968;48.178;11.566;2023-09-30T08:10:19;14.18;;;5.13;;
73670;SDS011;61968;48.178;11.566;2023-09-30T08:12:45;13.10;;;6.40;;
73670;SDS011;61968;48.178;11.566;2023-09-30T08:15:15;13.82;;;5.82;;
73670;SDS011;61968;48.178;11.566;2023-09-30T08:17:42;8.80;;;4.20;;
73670;SDS011;61968;48.178;11.566;2023-09-30T08:20:08;10.75;;;5.28;;
73670;SDS011;61968;48.178;11.566;2023-09-30T08:22:36;14.23;;;5.28;;
73670;SDS011;61968;48.178;11.566;2023-09-30T08:25:02;11.30;;;5.75;;
73670;SDS011;61968;48.178;11.566;2023-09-30T08:27:31;12.52;;;4.65;;
73670;SDS011;61968;48.178;11.566;2023-09-30T08:29:58;13.52;;;5.25;;
73670;SDS011;61968;48.178;11.566;2023-09-30T08:32:25;10.23;;;4.38;;
73670;SDS011;61968;48.178;11.566;2023-09-30T08:34:52;10.25;;;3.55;;
73670;SDS011;61968;48.178;11.566;2023-09-30T08:37:19;12.85;;;4.78;;
73670;SDS011;61968;48.178;11.566;2023-09-30T08:39:46;9.82;;;4.38;;
73670;SDS011;61968;48.178;11.566;2023-09-30T08:42:12;9.60;;;3.72;;
73670;SDS011;61968;48.178;11.566;2023-09-30T08:44:39;13.45;;;4.68;;
73670;SDS011;61968;48.178;11.566;2023-09-30T08:47:05;8.93;;;3.42;;
73670;SDS011;61968;48.178;11.566;2023-09-30T08:49:35;15.05;;;4.93;;
73670;SDS011;61968;48.178;11.566;2023-09-30T08:52:04;8.48;;;4.05;;
73670;SDS011;61968;48.178;11.566;2023-09-30T08:54:31;15.15;;;6.38;;
73670;SDS011;61968;48.178;11.566;2023-09-30T08:56:58;14.85;;;5.07;;
73670;SDS011;61968;48.178;11.566;2023-09-30T08:59:26;15.43;;;5.13;;
73670;SDS011;61968;48.178;11.566;2023-09-30T09:01:53;8.95;;;3.92;;
73670;SDS011;61968;48.178;11.566;2023-09-30T09:04:20;9.23;;;4.30;;
73670;SDS011;61968;48.178;11.566;2023-09-30T09:06:48;11.43;;;4.20;;
73670;SDS011;61968;48.178;11.566;2023-09-30T09:09:15;13.55;;;6.03;;
73670;SDS011;61968;48.178;11.566;2023-09-30T09:11:42;15.48;;;7.00;;
73670;SDS011;61968;48.178;11.566;2023-09-30T09:14:09;12.73;;;4.40;;
73670;SDS011;61968;48.178;11.566;2023-09-30T09:16:36;12.43;;;4.97;;
73670;SDS011;61968;48.178;11.566;2023-09-30T09:19:12;12.48;;;4.15;;
73670;SDS011;61968;48.178;11.566;2023-09-30T09:21:41;10.00;;;4.57;;
73670;SDS011;61968;48.178;11.566;2023-09-30T09:24:28;10.57;;;3.65;;
73670;SDS011;61968;48.178;11.566;2023-09-30T09:29:42;8.43;;;3.55;;
73670;SDS011;61968;48.178;11.566;2023-09-30T09:32:10;11.23;;;4.10;;
73670;SDS011;61968;48.178;11.566;2023-09-30T09:34:38;7.15;;;3.63;;
73670;SDS011;61968;48.178;11.566;2023-09-30T09:37:13;10.80;;;4.03;;
73670;SDS011;61968;48.178;11.566;2023-09-30T09:39:48;11.40;;;3.78;;
73670;SDS011;61968;48.178;11.566;2023-09-30T09:42:23;11.10;;;4.00;;
73670;SDS011;61968;48.178;11.566;2023-09-30T09:44:51;12.63;;;4.15;;
73670;SDS011;61968;48.178;11.566;2023-09-30T09:47:21;10.57;;;4.15;;
73670;SDS011;61968;48.178;11.566;2023-09-30T09:49:48;8.93;;;3.25;;
73670;SDS011;61968;48.178;11.566;2023-09-30T09:52:17;11.15;;;4.53;;
73670;SDS011;61968;48.178;11.566;2023-09-30T09:54:45;11.35;;;3.42;;
73670;SDS011;61968;48.178;11.566;2023-09-30T09:57:12;15.27;;;5.65;;
73670;SDS011;61968;48.178;11.566;2023-09-30T09:59:39;20.75;;;6.47;;
73670;SDS011;61968;48.178;11.566;2023-09-30T10:02:11;11.48;;;4.38;;
73670;SDS011;61968;48.178;11.566;2023-09-30T10:04:39;11.95;;;4.30;;
73670;SDS011;61968;48.178;11.566;2023-09-30T10:07:07;10.50;;;3.85;;
73670;SDS011;61968;48.178;11.566;2023-09-30T10:12:10;6.35;;;2.78;;
73670;SDS011;61968;48.178;11.566;2023-09-30T10:14:38;8.82;;;3.45;;
73670;SDS011;61968;48.178;11.566;2023-09-30T10:17:04;10.30;;;2.53;;
73670;SDS011;61968;48.178;11.566;2023-09-30T10:19:31;5.93;;;2.70;;
73670;SDS011;61968;48.178;11.566;2023-09-30T10:24:48;4.03;;;2.25;;
73670;SDS011;61968;48.178;11.566;2023-09-30T10:30:13;3.40;;;2.20;;
73670;SDS011;61968;48.178;11.566;2023-09-30T10:35:44;5.10;;;3.30;;
73670;SDS011;61968;48.178;11.566;2023-09-30T10:41:10;9.35;;;3.70;;
73670;SDS011;61968;48.178;11.566;2023-09-30T10:43:40;5.68;;;2.55;;
73670;SDS011;61968;48.178;11.566;2023-09-30T10:48:57;4.65;;;2.50;;
73670;SDS011;61968;48.178;11.566;2023-09-30T10:51:42;6.55;;;2.33;;
73670;SDS011;61968;48.178;11.566;2023-09-30T10:54:09;7.85;;;2.92;;
73670;SDS011;61968;48.178;11.566;2023-09-30T10:56:39;4.75;;;2.45;;
73670;SDS011;61968;48.178;11.566;2023-09-30T10:59:06;5.85;;;2.80;;
73670;SDS011;61968;48.178;11.566;2023-09-30T11:01:34;4.00;;;2.30;;
73670;SDS011;61968;48.178;11.566;2023-09-30T11:04:01;7.22;;;3.58;;
73670;SDS011;61968;48.178;11.566;2023-09-30T11:06:30;5.50;;;2.35;;
73670;SDS011;61968;48.178;11.566;2023-09-30T11:08:58;3.97;;;2.10;;
73670;SDS011;61968;48.178;11.566;2023-09-30T11:11:33;7.03;;;3.13;;
73670;SDS011;61968;48.178;11.566;2023-09-30T11:14:01;11.23;;;2.67;;
73670;SDS011;61968;48.178;11.566;2023-09-30T11:16:30;5.00;;;2.38;;
73670;SDS011;61968;48.178;11.566;2023-09-30T11:19:07;8.07;;;3.08;;
73670;SDS011;61968;48.178;11.566;2023-09-30T11:21:34;8.35;;;3.22;;
73670;SDS011;61968;48.178;11.566;2023-09-30T11:24:00;8.05;;;3.22;;
73670;SDS011;61968;48.178;11.566;2023-09-30T11:26:30;9.30;;;3.75;;
73670;SDS011;61968;48.178;11.566;2023-09-30T11:29:05;7.47;;;3.05;;
73670;SDS011;61968;48.178;11.566;2023-09-30T11:31:33;5.38;;;2.45;;
73670;SDS011;61968;48.178;11.566;2023-09-30T11:34:03;5.82;;;3.00;;
73670;SDS011;61968;48.178;11.566;2023-09-30T11:36:33;6.32;;;2.92;;
73670;SDS011;61968;48.178;11.566;2023-09-30T11:39:00;7.05;;;3.75;;
73670;SDS011;61968;48.178;11.566;2023-09-30T11:41:34;7.38;;;3.75;;
73670;SDS011;61968;48.178;11.566;2023-09-30T11:44:03;9.30;;;3.83;;
73670;SDS011;61968;48.178;11.566;2023-09-30T11:46:46;10.32;;;4.32;;
73670;SDS011;61968;48.178;11.566;2023-09-30T11:49:24;7.30;;;3.55;;
73670;SDS011;61968;48.178;11.566;2023-09-30T11:51:52;7.85;;;3.42;;
73670;SDS011;61968;48.178;11.566;2023-09-30T11:54:18;8.60;;;3.67;;
73670;SDS011;61968;48.178;11.566;2023-09-30T11:56:46;8.50;;;3.97;;
73670;SDS011;61968;48.178;11.566;2023-09-30T11:59:14;12.48;;;4.18;;
73670;SDS011;61968;48.178;11.566;2023-09-30T12:01:41;8.02;;;3.38;;
73670;SDS011;61968;48.178;11.566;2023-09-30T12:04:08;10.35;;;4.57;;
73670;SDS011;61968;48.178;11.566;2023-09-30T12:06:35;8.18;;;4.38;;
73670;SDS011;61968;48.178;11.566;2023-09-30T12:09:03;10.85;;;3.55;;
73670;SDS011;61968;48.178;11.566;2023-09-30T12:11:30;8.13;;;3.47;;
73670;SDS011;61968;48.178;11.566;2023-09-30T12:13:56;15.63;;;4.55;;
73670;SDS011;61968;48.178;11.566;2023-09-30T12:16:24;8.70;;;3.70;;
73670;SDS011;61968;48.178;11.566;2023-09-30T12:18:51;9.75;;;4.22;;
73670;SDS011;61968;48.178;11.566;2023-09-30T12:21:17;21.83;;;9.63;;
73670;SDS011;61968;48.178;11.566;2023-09-30T12:23:45;20.33;;;9.18;;
73670;SDS011;61968;48.178;11.566;2023-09-30T12:26:13;36.35;;;13.93;;
73670;SDS011;61968;48.178;11.566;2023-09-30T12:28:40;39.85;;;16.50;;
73670;SDS011;61968;48.178;11.566;2023-09-30T12:31:07;15.35;;;6.45;;
73670;SDS011;61968;48.178;11.566;2023-09-30T12:33:34;17.95;;;7.50;;
73670;SDS011;61968;48.178;11.566;2023-09-30T12:36:01;20.05;;;11.20;;
73670;SDS011;61968;48.178;11.566;2023-09-30T12:38:28;22.63;;;10.48;;
73670;SDS011;61968;48.178;11.566;2023-09-30T12:40:54;16.75;;;5.90;;
73670;SDS011;61968;48.178;11.566;2023-09-30T12:43:21;13.15;;;4.78;;
73670;SDS011;61968;48.178;11.566;2023-09-30T12:45:48;15.25;;;4.88;;
73670;SDS011;61968;48.178;11.566;2023-09-30T12:48:14;9.02;;;3.95;;
73670;SDS011;61968;48.178;11.566;2023-09-30T12:50:43;11.65;;;4.68;;
73670;SDS011;61968;48.178;11.566;2023-09-30T12:53:10;11.95;;;4.68;;
73670;SDS011;61968;48.178;11.566;2023-09-30T12:55:37;9.63;;;4.93;;
73670;SDS011;61968;48.178;11.566;2023-09-30T12:58:03;11.75;;;4.18;;
73670;SDS011;61968;48.178;11.566;2023-09-30T13:00:30;15.30;;;5.10;;
73670;SDS011;61968;48.178;11.566;2023-09-30T13:02:57;13.00;;;5.13;;
73670;SDS011;61968;48.178;11.566;2023-09-30T13:05:24;11.05;;;4.47;;
73670;SDS011;61968;48.178;11.566;2023-09-30T13:07:52;12.65;;;5.13;;
73670;SDS011;61968;48.178;11.566;2023-09-30T13:10:18;15.73;;;4.65;;
73670;SDS011;61968;48.178;11.566;2023-09-30T13:12:45;8.55;;;5.15;;
73670;SDS011;61968;48.178;11.566;2023-09-30T13:15:11;10.95;;;4.78;;
73670;SDS011;61968;48.178;11.566;2023-09-30T13:17:39;11.23;;;4.32;;
73670;SDS011;61968;48.178;11.566;2023-09-30T13:20:06;9.73;;;5.63;;
73670;SDS011;61968;48.178;11.566;2023-09-30T13:22:34;12.60;;;5.20;;
73670;SDS011;61968;48.178;11.566;2023-09-30T13:25:03;19.35;;;5.85;;
73670;SDS011;61968;48.178;11.566;2023-09-30T13:27:30;16.35;;;5.28;;
73670;SDS011;61968;48.178;11.566;2023-09-30T13:29:57;11.13;;;4.55;;
73670;SDS011;61968;48.178;11.566;2023-09-30T13:32:24;12.60;;;5.72;;
73670;SDS011;61968;48.178;11.566;2023-09-30T13:34:51;9.93;;;4.07;;
73670;SDS011;61968;48.178;11.566;2023-09-30T13:37:17;14.40;;;5.32;;
73670;SDS011;61968;48.178;11.566;2023-09-30T13:39:44;9.13;;;4.38;;
73670;SDS011;61968;48.178;11.566;2023-09-30T13:42:12;11.25;;;4.78;;
73670;SDS011;61968;48.178;11.566;2023-09-30T13:44:38;12.27;;;5.43;;
73670;SDS011;61968;48.178;11.566;2023-09-30T13:47:05;14.18;;;5.30;;
73670;SDS011;61968;48.178;11.566;2023-09-30T13:49:33;13.85;;;5.53;;
73670;SDS011;61968;48.178;11.566;2023-09-30T13:51:59;12.10;;;4.80;;
73670;SDS011;61968;48.178;11.566;2023-09-30T13:54:26;8.52;;;3.80;;
73670;SDS011;61968;48.178;11.566;2023-09-30T13:56:53;11.30;;;4.90;;
73670;SDS011;61968;48.178;11.566;2023-09-30T13:59:21;27.15;;;11.90;;
73670;SDS011;61968;48.178;11.566;2023-09-30T14:01:48;25.25;;;13.45;;
73670;SDS011;61968;48.178;11.566;2023-09-30T14:04:15;27.85;;;15.90;;
73670;SDS011;61968;48.178;11.566;2023-09-30T14:06:41;16.02;;;7.00;;
73670;SDS011;61968;48.178;11.566;2023-09-30T14:09:08;12.52;;;5.93;;
73670;SDS011;61968;48.178;11.566;2023-09-30T14:11:39;13.88;;;5.28;;
73670;SDS011;61968;48.178;11.566;2023-09-30T14:14:06;12.25;;;5.05;;
73670;SDS011;61968;48.178;11.566;2023-09-30T14:16:35;15.25;;;5.80;;
73670;SDS011;61968;48.178;11.566;2023-09-30T14:19:02;9.95;;;4.72;;
73670;SDS011;61968;48.178;11.566;2023-09-30T14:21:29;12.55;;;4.80;;
73670;SDS011;61968;48.178;11.566;2023-09-30T14:23:57;13.45;;;5.22;;
73670;SDS011;61968;48.178;11.566;2023-09-30T14:26:23;12.48;;;4.43;;
73670;SDS011;61968;48.178;11.566;2023-09-30T14:28:50;12.75;;;4.85;;
73670;SDS011;61968;48.178;11.566;2023-09-30T14:31:16;11.75;;;5.32;;
73670;SDS011;61968;48.178;11.566;2023-09-30T14:33:44;10.02;;;5.00;;
73670;SDS011;61968;48.178;11.566;2023-09-30T14:36:10;13.40;;;5.50;;
73670;SDS011;61968;48.178;11.566;2023-09-30T14:38:37;14.30;;;5.13;;
73670;SDS011;61968;48.178;11.566;2023-09-30T14:41:06;12.68;;;4.30;;
73670;SDS011;61968;48.178;11.566;2023-09-30T14:43:32;10.55;;;5.15;;
73670;SDS011;61968;48.178;11.566;2023-09-30T14:46:00;12.25;;;4.82;;